地図

経路データ

SID SEASON NUMBER BASIN SUBBASIN NAME ISO_TIME NATURE LAT LON WMO_WIND WMO_PRES WMO_AGENCY TRACK_TYPE DIST2LAND LANDFALL IFLAG USA_AGENCY USA_ATCF_ID USA_LAT USA_LON USA_RECORD USA_STATUS USA_WIND USA_PRES USA_SSHS USA_R34_NE USA_R34_SE USA_R34_SW USA_R34_NW USA_R50_NE USA_R50_SE USA_R50_SW USA_R50_NW USA_R64_NE USA_R64_SE USA_R64_SW USA_R64_NW USA_POCI USA_ROCI USA_RMW USA_EYE TOKYO_LAT TOKYO_LON TOKYO_GRADE TOKYO_WIND TOKYO_PRES TOKYO_R50_DIR TOKYO_R50_LONG TOKYO_R50_SHORT TOKYO_R30_DIR TOKYO_R30_LONG TOKYO_R30_SHORT TOKYO_LAND CMA_LAT CMA_LON CMA_CAT CMA_WIND CMA_PRES HKO_LAT HKO_LON HKO_CAT HKO_WIND HKO_PRES NEWDELHI_LAT NEWDELHI_LON NEWDELHI_GRADE NEWDELHI_WIND NEWDELHI_PRES NEWDELHI_CI NEWDELHI_DP NEWDELHI_POCI REUNION_LAT REUNION_LON REUNION_TYPE REUNION_WIND REUNION_PRES REUNION_TNUM REUNION_CI REUNION_RMW REUNION_R34_NE REUNION_R34_SE REUNION_R34_SW REUNION_R34_NW REUNION_R50_NE REUNION_R50_SE REUNION_R50_SW REUNION_R50_NW REUNION_R64_NE REUNION_R64_SE REUNION_R64_SW REUNION_R64_NW BOM_LAT BOM_LON BOM_TYPE BOM_WIND BOM_PRES BOM_TNUM BOM_CI BOM_RMW BOM_R34_NE BOM_R34_SE BOM_R34_SW BOM_R34_NW BOM_R50_NE BOM_R50_SE BOM_R50_SW BOM_R50_NW BOM_R64_NE BOM_R64_SE BOM_R64_SW BOM_R64_NW BOM_ROCI BOM_POCI BOM_EYE BOM_POS_METHOD BOM_PRES_METHOD NADI_LAT NADI_LON NADI_CAT NADI_WIND NADI_PRES WELLINGTON_LAT WELLINGTON_LON WELLINGTON_WIND WELLINGTON_PRES DS824_LAT DS824_LON DS824_STAGE DS824_WIND DS824_PRES TD9636_LAT TD9636_LON TD9636_STAGE TD9636_WIND TD9636_PRES TD9635_LAT TD9635_LON TD9635_WIND TD9635_PRES TD9635_ROCI NEUMANN_LAT NEUMANN_LON NEUMANN_CLASS NEUMANN_WIND NEUMANN_PRES MLC_LAT MLC_LON MLC_CLASS MLC_WIND MLC_PRES USA_GUST BOM_GUST BOM_GUST_PER REUNION_GUST REUNION_GUST_PER USA_SEAHGT USA_SEARAD_NE USA_SEARAD_SE USA_SEARAD_SW USA_SEARAD_NW STORM_SPEED STORM_DIR
1876260N19302 1876 19 NA NA NOT_NAMED 1876-09-16 00:00:00 TS 19.0000 -57.8000 50 hurdat_atl main 824 810 O_____________ hurdat_atl AL031876 19.0000 -57.8000 TS 50 0 18 345
1876260N19302 1876 19 NA NA NOT_NAMED 1876-09-16 03:00:00 TS 19.8776 -58.0393 main 815 800 P_____________ AL031876 19.8776 -58.0393 TS 50 0 17 344
1876260N19302 1876 19 NA NA NOT_NAMED 1876-09-16 06:00:00 TS 20.6000 -58.3000 50 hurdat_atl main 803 788 O_____________ hurdat_atl AL031876 20.6000 -58.3000 TS 50 0 13 337
1876260N19302 1876 19 NA NA NOT_NAMED 1876-09-16 09:00:00 TS 21.0800 -58.5930 main 792 776 P_____________ AL031876 21.0800 -58.5930 TS 50 0 11 328
1876260N19302 1876 19 NA NA NOT_NAMED 1876-09-16 12:00:00 TS 21.5000 -58.9000 50 hurdat_atl main 781 776 O_____________ hurdat_atl AL031876 21.5000 -58.9000 TS 50 0 11 330
1876260N19302 1876 19 NA NA NOT_NAMED 1876-09-16 15:00:00 TS 22.0399 -59.1930 main 779 779 P_____________ AL031876 22.0399 -59.1930 TS 50 0 13 335
1876260N19302 1876 19 NA NA NOT_NAMED 1876-09-16 18:00:00 TS 22.7000 -59.5000 50 hurdat_atl main 796 794 O_____________ hurdat_atl AL031876 22.7000 -59.5000 TS 50 0 16 337
1876260N19302 1876 19 NA NA NOT_NAMED 1876-09-16 21:00:00 TS 23.5051 -59.8573 main 821 821 P_____________ AL031876 23.5051 -59.8573 TS 50 0 18 339
1876260N19302 1876 19 NA NA NOT_NAMED 1876-09-17 00:00:00 TS 24.4000 -60.2000 50 hurdat_atl main 872 872 O_____________ hurdat_atl AL031876 24.4000 -60.2000 TS 50 0 19 342
1876260N19302 1876 19 NA NA NOT_NAMED 1876-09-17 03:00:00 TS 25.2924 -60.4803 main 933 933 P_____________ AL031876 25.2924 -60.4803 TS 50 0 19 346
1876260N19302 1876 19 NA NA NOT_NAMED 1876-09-17 06:00:00 TS 26.2000 -60.7000 50 hurdat_atl main 1006 1006 O_____________ hurdat_atl AL031876 26.2000 -60.7000 TS 50 0 18 349
1876260N19302 1876 19 NA NA NOT_NAMED 1876-09-17 09:00:00 TS 27.0925 -60.8802 main 1084 1084 P_____________ AL031876 27.0925 -60.8802 TS 50 0 18 351
1876260N19302 1876 19 NA NA NOT_NAMED 1876-09-17 12:00:00 TS 28.0000 -61.0000 50 hurdat_atl main 1171 1171 O_____________ hurdat_atl AL031876 28.0000 -61.0000 TS 50 0 19 354
1876260N19302 1876 19 NA NA NOT_NAMED 1876-09-17 15:00:00 TS 28.9425 -61.0873 main 1259 1259 P_____________ AL031876 28.9425 -61.0873 TS 50 0 19 357
1876260N19302 1876 19 NA NA NOT_NAMED 1876-09-17 18:00:00 TS 29.9000 -61.1000 50 hurdat_atl main 1363 1363 O_____________ hurdat_atl AL031876 29.9000 -61.1000 TS 50 0 19 1
1876260N19302 1876 19 NA NA NOT_NAMED 1876-09-17 21:00:00 TS 30.8649 -61.0521 main 1440 1358 P_____________ AL031876 30.8649 -61.0521 TS 50 0 19 5
1876260N19302 1876 19 NA NA NOT_NAMED 1876-09-18 00:00:00 TS 31.8000 -60.9000 50 hurdat_atl main 1358 1277 O_____________ hurdat_atl AL031876 31.8000 -60.9000 TS 50 0 18 11
1876260N19302 1876 19 NA NA NOT_NAMED 1876-09-18 03:00:00 TS 32.6425 -60.6444 main 1280 1204 P_____________ AL031876 32.6425 -60.6444 TS 50 0 18 17
1876260N19302 1876 19 NA NA NOT_NAMED 1876-09-18 06:00:00 TS 33.5000 -60.3000 50 hurdat_atl main 1194 1110 O_____________ hurdat_atl AL031876 33.5000 -60.3000 TS 50 0 20 17
1876260N19302 1876 19 NA NA NOT_NAMED 1876-09-18 09:00:00 TS 34.4997 -59.9441 main 1104 1024 P_____________ AL031876 34.4997 -59.9441 TS 50 0 21 18
1876260N19302 1876 19 NA NA NOT_NAMED 1876-09-18 12:00:00 TS 35.5000 -59.5000 50 hurdat_atl main 1018 963 O_____________ hurdat_atl AL031876 35.5000 -59.5000 TS 50 0 21 23
1876260N19302 1876 19 NA NA NOT_NAMED 1876-09-18 15:00:00 TS 36.3883 -58.9377 main 958 915 P_____________ AL031876 36.3883 -58.9377 TS 50 0 20 30
1876260N19302 1876 19 NA NA NOT_NAMED 1876-09-18 18:00:00 TS 37.2000 -58.3000 50 hurdat_atl main 915 O_____________ hurdat_atl AL031876 37.2000 -58.3000 TS 50 0 19 32

IBTrACS Databaseについて

本データベースは、米国NOAAが公開する1842年以降の世界の熱帯低気圧のベストトラックデータアーカイブInternational Best Track Archive for Climate Stewardship (IBTrACS)を、ウェブで閲覧しやすい形式に変換したものです。

最終更新日:2021-11-26